sensor_id;sensor_type;location;lat;lon;timestamp;temperature;humidity
48988;DHT22;34799;51.440;-2.534;2023-11-21T00:01:17;11.30;99.90
48988;DHT22;34799;51.440;-2.534;2023-11-21T00:03:44;11.40;99.90
48988;DHT22;34799;51.440;-2.534;2023-11-21T00:06:12;11.20;99.90
48988;DHT22;34799;51.440;-2.534;2023-11-21T00:08:40;11.30;99.90
48988;DHT22;34799;51.440;-2.534;2023-11-21T00:11:08;11.80;99.90
48988;DHT22;34799;51.440;-2.534;2023-11-21T00:13:36;11.30;99.90
48988;DHT22;34799;51.440;-2.534;2023-11-21T00:16:04;11.20;99.90
48988;DHT22;34799;51.440;-2.534;2023-11-21T00:18:33;11.30;99.90
48988;DHT22;34799;51.440;-2.534;2023-11-21T00:21:01;11.60;99.90
48988;DHT22;34799;51.440;-2.534;2023-11-21T00:23:28;11.20;99.90
48988;DHT22;34799;51.440;-2.534;2023-11-21T00:25:55;11.40;99.90
48988;DHT22;34799;51.440;-2.534;2023-11-21T00:28:22;11.20;99.90
48988;DHT22;34799;51.440;-2.534;2023-11-21T00:30:50;11.20;99.90
48988;DHT22;34799;51.440;-2.534;2023-11-21T00:33:17;11.10;99.90
48988;DHT22;34799;51.440;-2.534;2023-11-21T00:35:45;11.00;99.90
48988;DHT22;34799;51.440;-2.534;2023-11-21T00:38:13;11.00;99.90
48988;DHT22;34799;51.440;-2.534;2023-11-21T00:40:41;11.00;99.90
48988;DHT22;34799;51.440;-2.534;2023-11-21T00:43:09;11.00;99.90
48988;DHT22;34799;51.440;-2.534;2023-11-21T00:45:37;11.00;99.90
48988;DHT22;34799;51.440;-2.534;2023-11-21T00:48:04;11.00;99.90
48988;DHT22;34799;51.440;-2.534;2023-11-21T00:50:32;11.00;99.90
48988;DHT22;34799;51.440;-2.534;2023-11-21T00:52:59;11.00;99.90
48988;DHT22;34799;51.440;-2.534;2023-11-21T00:55:26;11.00;99.90
48988;DHT22;34799;51.440;-2.534;2023-11-21T00:57:55;11.00;99.90
48988;DHT22;34799;51.440;-2.534;2023-11-21T01:00:22;11.10;99.90
48988;DHT22;34799;51.440;-2.534;2023-11-21T01:02:50;11.10;99.90
48988;DHT22;34799;51.440;-2.534;2023-11-21T01:05:18;11.10;99.90
48988;DHT22;34799;51.440;-2.534;2023-11-21T01:07:47;11.10;99.90
48988;DHT22;34799;51.440;-2.534;2023-11-21T01:10:17;11.00;99.90
48988;DHT22;34799;51.440;-2.534;2023-11-21T01:12:45;10.90;99.90
48988;DHT22;34799;51.440;-2.534;2023-11-21T01:15:13;10.90;99.90
48988;DHT22;34799;51.440;-2.534;2023-11-21T01:17:41;10.90;99.90
48988;DHT22;34799;51.440;-2.534;2023-11-21T01:20:09;10.80;99.90
48988;DHT22;34799;51.440;-2.534;2023-11-21T01:22:41;10.90;99.90
48988;DHT22;34799;51.440;-2.534;2023-11-21T01:25:09;10.80;99.90
48988;DHT22;34799;51.440;-2.534;2023-11-21T01:27:38;10.90;99.90
48988;DHT22;34799;51.440;-2.534;2023-11-21T01:30:06;10.90;99.90
48988;DHT22;34799;51.440;-2.534;2023-11-21T01:32:36;10.90;99.90
48988;DHT22;34799;51.440;-2.534;2023-11-21T01:35:04;11.00;99.90
48988;DHT22;34799;51.440;-2.534;2023-11-21T01:37:33;10.80;99.90
48988;DHT22;34799;51.440;-2.534;2023-11-21T01:40:01;10.80;99.90
48988;DHT22;34799;51.440;-2.534;2023-11-21T01:42:29;10.80;99.90
48988;DHT22;34799;51.440;-2.534;2023-11-21T01:44:56;10.80;99.90
48988;DHT22;34799;51.440;-2.534;2023-11-21T01:47:25;10.90;99.90
48988;DHT22;34799;51.440;-2.534;2023-11-21T01:49:53;10.90;99.90
48988;DHT22;34799;51.440;-2.534;2023-11-21T01:52:21;10.80;99.90
48988;DHT22;34799;51.440;-2.534;2023-11-21T01:54:49;10.90;99.90
48988;DHT22;34799;51.440;-2.534;2023-11-21T01:57:19;10.90;99.90
48988;DHT22;34799;51.440;-2.534;2023-11-21T01:59:49;10.90;99.90
48988;DHT22;34799;51.440;-2.534;2023-11-21T02:02:18;10.80;99.90
48988;DHT22;34799;51.440;-2.534;2023-11-21T02:04:47;10.90;99.90
48988;DHT22;34799;51.440;-2.534;2023-11-21T02:07:14;10.90;99.90
48988;DHT22;34799;51.440;-2.534;2023-11-21T02:09:42;11.20;99.90
48988;DHT22;34799;51.440;-2.534;2023-11-21T02:12:09;11.30;99.90
48988;DHT22;34799;51.440;-2.534;2023-11-21T02:14:38;10.80;99.90
48988;DHT22;34799;51.440;-2.534;2023-11-21T02:17:07;10.90;99.90
48988;DHT22;34799;51.440;-2.534;2023-11-21T02:19:36;10.90;99.90
48988;DHT22;34799;51.440;-2.534;2023-11-21T02:22:04;10.90;99.90
48988;DHT22;34799;51.440;-2.534;2023-11-21T02:24:33;10.80;99.90
48988;DHT22;34799;51.440;-2.534;2023-11-21T02:27:01;10.80;99.90
48988;DHT22;34799;51.440;-2.534;2023-11-21T02:29:29;10.80;99.90
48988;DHT22;34799;51.440;-2.534;2023-11-21T02:31:57;10.80;99.90
48988;DHT22;34799;51.440;-2.534;2023-11-21T02:34:25;10.80;99.90
48988;DHT22;34799;51.440;-2.534;2023-11-21T02:36:52;10.80;99.90
48988;DHT22;34799;51.440;-2.534;2023-11-21T02:39:19;10.80;99.90
48988;DHT22;34799;51.440;-2.534;2023-11-21T02:41:49;10.80;99.90
48988;DHT22;34799;51.440;-2.534;2023-11-21T02:44:16;10.80;99.90
48988;DHT22;34799;51.440;-2.534;2023-11-21T02:46:44;10.80;99.90
48988;DHT22;34799;51.440;-2.534;2023-11-21T02:49:12;11.20;99.90
48988;DHT22;34799;51.440;-2.534;2023-11-21T02:51:40;10.70;99.90
48988;DHT22;34799;51.440;-2.534;2023-11-21T02:54:09;10.70;99.90
48988;DHT22;34799;51.440;-2.534;2023-11-21T02:56:36;10.70;99.90
48988;DHT22;34799;51.440;-2.534;2023-11-21T02:59:04;10.70;99.90
48988;DHT22;34799;51.440;-2.534;2023-11-21T03:01:32;10.70;99.90
48988;DHT22;34799;51.440;-2.534;2023-11-21T03:04:00;10.70;99.90
48988;DHT22;34799;51.440;-2.534;2023-11-21T03:06:29;10.70;99.90
48988;DHT22;34799;51.440;-2.534;2023-11-21T03:08:57;10.80;99.90
48988;DHT22;34799;51.440;-2.534;2023-11-21T03:11:24;10.90;99.90
48988;DHT22;34799;51.440;-2.534;2023-11-21T03:13:51;10.70;99.90
48988;DHT22;34799;51.440;-2.534;2023-11-21T03:16:18;10.80;99.90
48988;DHT22;34799;51.440;-2.534;2023-11-21T03:18:46;10.70;99.90
48988;DHT22;34799;51.440;-2.534;2023-11-21T03:21:14;10.70;99.90
48988;DHT22;34799;51.440;-2.534;2023-11-21T03:23:41;10.80;99.90
48988;DHT22;34799;51.440;-2.534;2023-11-21T03:26:12;10.80;99.90
48988;DHT22;34799;51.440;-2.534;2023-11-21T03:28:40;10.80;99.90
48988;DHT22;34799;51.440;-2.534;2023-11-21T03:31:08;10.80;99.90
48988;DHT22;34799;51.440;-2.534;2023-11-21T03:33:36;10.70;99.90
48988;DHT22;34799;51.440;-2.534;2023-11-21T03:36:05;10.70;99.90
48988;DHT22;34799;51.440;-2.534;2023-11-21T03:38:34;10.70;99.90
48988;DHT22;34799;51.440;-2.534;2023-11-21T03:41:03;10.70;99.90
48988;DHT22;34799;51.440;-2.534;2023-11-21T03:43:31;10.70;99.90
48988;DHT22;34799;51.440;-2.534;2023-11-21T03:45:58;10.60;99.90
48988;DHT22;34799;51.440;-2.534;2023-11-21T03:48:26;10.70;99.90
48988;DHT22;34799;51.440;-2.534;2023-11-21T03:50:54;10.70;99.90
48988;DHT22;34799;51.440;-2.534;2023-11-21T03:53:22;11.30;99.90
48988;DHT22;34799;51.440;-2.534;2023-11-21T03:55:49;10.70;99.90
48988;DHT22;34799;51.440;-2.534;2023-11-21T03:58:16;11.00;99.90
48988;DHT22;34799;51.440;-2.534;2023-11-21T04:00:47;10.70;99.90
48988;DHT22;34799;51.440;-2.534;2023-11-21T04:03:16;10.70;99.90
48988;DHT22;34799;51.440;-2.534;2023-11-21T04:05:43;10.60;99.90
48988;DHT22;34799;51.440;-2.534;2023-11-21T04:08:12;10.60;99.90
48988;DHT22;34799;51.440;-2.534;2023-11-21T04:10:39;10.60;99.90
48988;DHT22;34799;51.440;-2.534;2023-11-21T04:13:06;10.60;99.90
48988;DHT22;34799;51.440;-2.534;2023-11-21T04:15:33;10.50;99.90
48988;DHT22;34799;51.440;-2.534;2023-11-21T04:18:00;10.50;99.90
48988;DHT22;34799;51.440;-2.534;2023-11-21T04:20:29;10.40;99.90
48988;DHT22;34799;51.440;-2.534;2023-11-21T04:22:57;10.40;99.90
48988;DHT22;34799;51.440;-2.534;2023-11-21T04:25:25;10.40;99.90
48988;DHT22;34799;51.440;-2.534;2023-11-21T04:27:53;10.70;99.90
48988;DHT22;34799;51.440;-2.534;2023-11-21T04:30:22;10.50;99.90
48988;DHT22;34799;51.440;-2.534;2023-11-21T04:32:49;10.40;99.90
48988;DHT22;34799;51.440;-2.534;2023-11-21T04:35:17;10.40;99.90
48988;DHT22;34799;51.440;-2.534;2023-11-21T04:37:44;10.30;99.90
48988;DHT22;34799;51.440;-2.534;2023-11-21T04:40:12;10.30;99.90
48988;DHT22;34799;51.440;-2.534;2023-11-21T04:42:39;10.20;99.90
48988;DHT22;34799;51.440;-2.534;2023-11-21T04:45:07;10.20;99.90
48988;DHT22;34799;51.440;-2.534;2023-11-21T04:47:39;10.10;99.90
48988;DHT22;34799;51.440;-2.534;2023-11-21T04:50:06;10.10;99.90
48988;DHT22;34799;51.440;-2.534;2023-11-21T04:52:33;10.10;99.90
48988;DHT22;34799;51.440;-2.534;2023-11-21T04:55:01;10.10;99.90
48988;DHT22;34799;51.440;-2.534;2023-11-21T04:57:30;10.00;99.90
48988;DHT22;34799;51.440;-2.534;2023-11-21T04:59:58;10.00;99.90
48988;DHT22;34799;51.440;-2.534;2023-11-21T05:02:26;10.00;99.90
48988;DHT22;34799;51.440;-2.534;2023-11-21T05:04:56;10.00;99.90
48988;DHT22;34799;51.440;-2.534;2023-11-21T05:07:24;10.10;99.90
48988;DHT22;34799;51.440;-2.534;2023-11-21T05:09:57;10.00;99.90
48988;DHT22;34799;51.440;-2.534;2023-11-21T05:12:25;10.00;99.90
48988;DHT22;34799;51.440;-2.534;2023-11-21T05:14:52;10.00;99.90
48988;DHT22;34799;51.440;-2.534;2023-11-21T05:17:19;10.10;99.90
48988;DHT22;34799;51.440;-2.534;2023-11-21T05:19:47;10.10;99.90
48988;DHT22;34799;51.440;-2.534;2023-11-21T05:22:16;10.00;99.90
48988;DHT22;34799;51.440;-2.534;2023-11-21T05:24:44;10.00;99.90
48988;DHT22;34799;51.440;-2.534;2023-11-21T05:27:11;9.90;99.90
48988;DHT22;34799;51.440;-2.534;2023-11-21T05:29:39;9.90;99.90
48988;DHT22;34799;51.440;-2.534;2023-11-21T05:32:07;9.90;99.90
48988;DHT22;34799;51.440;-2.534;2023-11-21T05:34:35;10.20;99.90
48988;DHT22;34799;51.440;-2.534;2023-11-21T05:37:02;9.90;99.90
48988;DHT22;34799;51.440;-2.534;2023-11-21T05:39:29;10.30;99.90
48988;DHT22;34799;51.440;-2.534;2023-11-21T05:41:56;9.90;99.90
48988;DHT22;34799;51.440;-2.534;2023-11-21T05:44:24;8.20;99.90
48988;DHT22;34799;51.440;-2.534;2023-11-21T05:46:52;9.80;99.90
48988;DHT22;34799;51.440;-2.534;2023-11-21T05:49:20;9.80;99.90
48988;DHT22;34799;51.440;-2.534;2023-11-21T05:51:54;9.80;99.90
48988;DHT22;34799;51.440;-2.534;2023-11-21T05:54:21;9.80;99.90
48988;DHT22;34799;51.440;-2.534;2023-11-21T05:56:48;10.20;99.90
48988;DHT22;34799;51.440;-2.534;2023-11-21T05:59:16;9.90;99.90
48988;DHT22;34799;51.440;-2.534;2023-11-21T06:01:44;9.70;99.90
48988;DHT22;34799;51.440;-2.534;2023-11-21T06:04:13;9.70;99.90
48988;DHT22;34799;51.440;-2.534;2023-11-21T06:06:41;9.70;99.90
48988;DHT22;34799;51.440;-2.534;2023-11-21T06:09:08;9.70;99.90
48988;DHT22;34799;51.440;-2.534;2023-11-21T06:11:36;10.40;99.90
48988;DHT22;34799;51.440;-2.534;2023-11-21T06:14:04;9.70;99.90
48988;DHT22;34799;51.440;-2.534;2023-11-21T06:16:33;9.60;99.90
48988;DHT22;34799;51.440;-2.534;2023-11-21T06:19:01;9.70;99.90
48988;DHT22;34799;51.440;-2.534;2023-11-21T06:21:29;10.30;99.90
48988;DHT22;34799;51.440;-2.534;2023-11-21T06:23:57;9.60;99.90
48988;DHT22;34799;51.440;-2.534;2023-11-21T06:26:25;9.60;99.90
48988;DHT22;34799;51.440;-2.534;2023-11-21T06:28:52;9.60;99.90
48988;DHT22;34799;51.440;-2.534;2023-11-21T06:31:20;9.90;99.90
48988;DHT22;34799;51.440;-2.534;2023-11-21T06:33:48;9.60;99.90
48988;DHT22;34799;51.440;-2.534;2023-11-21T06:36:16;9.70;99.90
48988;DHT22;34799;51.440;-2.534;2023-11-21T06:38:44;9.60;99.90
48988;DHT22;34799;51.440;-2.534;2023-11-21T06:41:13;9.60;99.90
48988;DHT22;34799;51.440;-2.534;2023-11-21T06:43:42;9.60;99.90
48988;DHT22;34799;51.440;-2.534;2023-11-21T06:46:13;9.70;99.90
48988;DHT22;34799;51.440;-2.534;2023-11-21T06:48:44;9.70;99.90
48988;DHT22;34799;51.440;-2.534;2023-11-21T06:51:13;10.00;99.90
48988;DHT22;34799;51.440;-2.534;2023-11-21T06:53:40;9.60;99.90
48988;DHT22;34799;51.440;-2.534;2023-11-21T06:56:19;9.60;99.90
48988;DHT22;34799;51.440;-2.534;2023-11-21T06:58:46;10.30;99.90
48988;DHT22;34799;51.440;-2.534;2023-11-21T07:01:13;9.60;99.90
48988;DHT22;34799;51.440;-2.534;2023-11-21T07:03:41;10.30;99.90
48988;DHT22;34799;51.440;-2.534;2023-11-21T07:06:09;9.90;99.90
48988;DHT22;34799;51.440;-2.534;2023-11-21T07:08:36;9.70;99.90
48988;DHT22;34799;51.440;-2.534;2023-11-21T07:11:04;9.70;99.90
48988;DHT22;34799;51.440;-2.534;2023-11-21T07:13:31;9.70;99.90
48988;DHT22;34799;51.440;-2.534;2023-11-21T07:15:59;9.60;99.90
48988;DHT22;34799;51.440;-2.534;2023-11-21T07:18:27;9.60;99.90
48988;DHT22;34799;51.440;-2.534;2023-11-21T07:20:55;9.70;99.90
48988;DHT22;34799;51.440;-2.534;2023-11-21T07:23:22;9.60;99.90
48988;DHT22;34799;51.440;-2.534;2023-11-21T07:25:49;9.60;99.90
48988;DHT22;34799;51.440;-2.534;2023-11-21T07:28:17;9.70;99.90
48988;DHT22;34799;51.440;-2.534;2023-11-21T07:30:44;9.70;99.90
48988;DHT22;34799;51.440;-2.534;2023-11-21T07:33:11;9.70;99.90
48988;DHT22;34799;51.440;-2.534;2023-11-21T07:35:39;9.70;99.90
48988;DHT22;34799;51.440;-2.534;2023-11-21T07:38:07;9.70;99.90
48988;DHT22;34799;51.440;-2.534;2023-11-21T07:40:35;9.70;99.90
48988;DHT22;34799;51.440;-2.534;2023-11-21T07:43:04;10.10;99.90
48988;DHT22;34799;51.440;-2.534;2023-11-21T07:45:33;9.70;99.90
48988;DHT22;34799;51.440;-2.534;2023-11-21T07:48:02;9.80;99.90
48988;DHT22;34799;51.440;-2.534;2023-11-21T07:50:31;9.70;99.90
48988;DHT22;34799;51.440;-2.534;2023-11-21T07:52:59;9.70;99.90
48988;DHT22;34799;51.440;-2.534;2023-11-21T07:55:27;10.00;99.90
48988;DHT22;34799;51.440;-2.534;2023-11-21T07:57:56;9.60;99.90
48988;DHT22;34799;51.440;-2.534;2023-11-21T08:00:23;9.70;99.90
48988;DHT22;34799;51.440;-2.534;2023-11-21T08:02:51;9.60;99.90
48988;DHT22;34799;51.440;-2.534;2023-11-21T08:05:18;10.00;99.90
48988;DHT22;34799;51.440;-2.534;2023-11-21T08:07:47;9.70;99.90
48988;DHT22;34799;51.440;-2.534;2023-11-21T08:10:14;9.50;99.90
48988;DHT22;34799;51.440;-2.534;2023-11-21T08:12:43;9.80;99.90
48988;DHT22;34799;51.440;-2.534;2023-11-21T08:15:10;9.60;99.90
48988;DHT22;34799;51.440;-2.534;2023-11-21T08:17:37;9.60;99.90
48988;DHT22;34799;51.440;-2.534;2023-11-21T08:20:07;9.70;99.90
48988;DHT22;34799;51.440;-2.534;2023-11-21T08:22:36;9.60;99.90
48988;DHT22;34799;51.440;-2.534;2023-11-21T08:25:04;9.60;99.90
48988;DHT22;34799;51.440;-2.534;2023-11-21T08:27:33;9.60;99.90
48988;DHT22;34799;51.440;-2.534;2023-11-21T08:30:05;9.60;99.90
48988;DHT22;34799;51.440;-2.534;2023-11-21T08:32:32;9.70;99.90
48988;DHT22;34799;51.440;-2.534;2023-11-21T08:35:00;9.60;99.90
48988;DHT22;34799;51.440;-2.534;2023-11-21T08:37:28;9.60;99.90
48988;DHT22;34799;51.440;-2.534;2023-11-21T08:39:58;9.70;99.90
48988;DHT22;34799;51.440;-2.534;2023-11-21T08:42:26;9.70;99.90
48988;DHT22;34799;51.440;-2.534;2023-11-21T08:44:56;9.90;99.90
48988;DHT22;34799;51.440;-2.534;2023-11-21T08:47:28;9.90;99.90
48988;DHT22;34799;51.440;-2.534;2023-11-21T08:49:56;9.60;99.90
48988;DHT22;34799;51.440;-2.534;2023-11-21T08:52:26;10.50;99.90
48988;DHT22;34799;51.440;-2.534;2023-11-21T08:54:54;9.70;99.90
48988;DHT22;34799;51.440;-2.534;2023-11-21T08:57:26;9.60;99.90
48988;DHT22;34799;51.440;-2.534;2023-11-21T08:59:54;9.70;99.90
48988;DHT22;34799;51.440;-2.534;2023-11-21T09:02:26;9.60;99.90
48988;DHT22;34799;51.440;-2.534;2023-11-21T09:04:53;10.10;99.90
48988;DHT22;34799;51.440;-2.534;2023-11-21T09:07:20;9.70;99.90
48988;DHT22;34799;51.440;-2.534;2023-11-21T09:09:48;9.90;99.90
48988;DHT22;34799;51.440;-2.534;2023-11-21T09:12:17;9.70;99.90
48988;DHT22;34799;51.440;-2.534;2023-11-21T09:14:46;9.70;99.90
48988;DHT22;34799;51.440;-2.534;2023-11-21T09:17:14;9.80;99.90
48988;DHT22;34799;51.440;-2.534;2023-11-21T09:19:42;9.80;99.90
48988;DHT22;34799;51.440;-2.534;2023-11-21T09:22:17;9.80;99.90
48988;DHT22;34799;51.440;-2.534;2023-11-21T09:24:46;9.80;99.90
48988;DHT22;34799;51.440;-2.534;2023-11-21T09:27:13;9.80;99.90
48988;DHT22;34799;51.440;-2.534;2023-11-21T09:29:40;9.80;99.90
48988;DHT22;34799;51.440;-2.534;2023-11-21T09:32:07;11.00;99.90
48988;DHT22;34799;51.440;-2.534;2023-11-21T09:34:35;9.80;99.90
48988;DHT22;34799;51.440;-2.534;2023-11-21T09:37:05;9.90;99.90
48988;DHT22;34799;51.440;-2.534;2023-11-21T09:39:33;9.80;99.90
48988;DHT22;34799;51.440;-2.534;2023-11-21T09:42:58;9.90;99.90
48988;DHT22;34799;51.440;-2.534;2023-11-21T09:45:35;9.80;99.90
48988;DHT22;34799;51.440;-2.534;2023-11-21T09:48:02;9.80;99.90
48988;DHT22;34799;51.440;-2.534;2023-11-21T09:50:30;9.80;99.90
48988;DHT22;34799;51.440;-2.534;2023-11-21T09:53:13;9.80;99.90
48988;DHT22;34799;51.440;-2.534;2023-11-21T09:55:46;9.80;99.90
48988;DHT22;34799;51.440;-2.534;2023-11-21T09:58:15;9.80;99.90
48988;DHT22;34799;51.440;-2.534;2023-11-21T10:00:46;9.80;99.90
48988;DHT22;34799;51.440;-2.534;2023-11-21T10:03:14;9.80;99.90
48988;DHT22;34799;51.440;-2.534;2023-11-21T10:05:45;9.90;99.90
48988;DHT22;34799;51.440;-2.534;2023-11-21T10:08:13;9.90;99.90
48988;DHT22;34799;51.440;-2.534;2023-11-21T10:10:45;10.30;99.90
48988;DHT22;34799;51.440;-2.534;2023-11-21T10:13:17;10.20;99.90
48988;DHT22;34799;51.440;-2.534;2023-11-21T10:15:50;9.90;99.90
48988;DHT22;34799;51.440;-2.534;2023-11-21T10:18:17;10.00;99.90
48988;DHT22;34799;51.440;-2.534;2023-11-21T10:20:45;9.90;99.90
48988;DHT22;34799;51.440;-2.534;2023-11-21T10:23:20;9.90;99.90
48988;DHT22;34799;51.440;-2.534;2023-11-21T10:25:48;10.00;99.90
48988;DHT22;34799;51.440;-2.534;2023-11-21T10:28:17;9.90;99.90
48988;DHT22;34799;51.440;-2.534;2023-11-21T10:30:45;9.90;99.90
48988;DHT22;34799;51.440;-2.534;2023-11-21T10:33:13;9.90;99.90
48988;DHT22;34799;51.440;-2.534;2023-11-21T10:35:47;10.00;99.90
48988;DHT22;34799;51.440;-2.534;2023-11-21T10:38:18;10.50;99.90
48988;DHT22;34799;51.440;-2.534;2023-11-21T10:40:45;10.10;99.90
48988;DHT22;34799;51.440;-2.534;2023-11-21T10:43:14;10.10;99.90
48988;DHT22;34799;51.440;-2.534;2023-11-21T10:45:45;10.40;99.90
48988;DHT22;34799;51.440;-2.534;2023-11-21T10:48:14;10.00;99.90
48988;DHT22;34799;51.440;-2.534;2023-11-21T10:50:45;10.00;99.90
48988;DHT22;34799;51.440;-2.534;2023-11-21T10:53:13;9.90;99.90
48988;DHT22;34799;51.440;-2.534;2023-11-21T10:55:40;9.90;99.90
48988;DHT22;34799;51.440;-2.534;2023-11-21T10:58:10;10.10;99.90
48988;DHT22;34799;51.440;-2.534;2023-11-21T11:00:40;10.40;99.90
48988;DHT22;34799;51.440;-2.534;2023-11-21T11:03:08;10.60;99.90
48988;DHT22;34799;51.440;-2.534;2023-11-21T11:05:43;10.00;99.90
48988;DHT22;34799;51.440;-2.534;2023-11-21T11:08:19;10.10;99.90
48988;DHT22;34799;51.440;-2.534;2023-11-21T11:10:53;10.10;99.90
48988;DHT22;34799;51.440;-2.534;2023-11-21T11:13:20;10.20;99.90
48988;DHT22;34799;51.440;-2.534;2023-11-21T11:15:48;10.10;99.90
48988;DHT22;34799;51.440;-2.534;2023-11-21T11:18:16;10.20;99.90
48988;DHT22;34799;51.440;-2.534;2023-11-21T11:20:45;10.10;99.90
48988;DHT22;34799;51.440;-2.534;2023-11-21T11:23:45;10.10;99.90
48988;DHT22;34799;51.440;-2.534;2023-11-21T11:26:39;10.10;99.90
48988;DHT22;34799;51.440;-2.534;2023-11-21T11:29:39;10.20;99.90
48988;DHT22;34799;51.440;-2.534;2023-11-21T11:32:36;10.20;99.90
48988;DHT22;34799;51.440;-2.534;2023-11-21T11:35:22;10.20;99.90
48988;DHT22;34799;51.440;-2.534;2023-11-21T11:37:53;10.20;99.90
48988;DHT22;34799;51.440;-2.534;2023-11-21T11:40:22;10.70;99.90
48988;DHT22;34799;51.440;-2.534;2023-11-21T11:42:58;10.20;99.90
48988;DHT22;34799;51.440;-2.534;2023-11-21T11:45:33;10.40;99.90
48988;DHT22;34799;51.440;-2.534;2023-11-21T11:48:02;10.20;99.90
48988;DHT22;34799;51.440;-2.534;2023-11-21T11:50:30;10.10;99.90
48988;DHT22;34799;51.440;-2.534;2023-11-21T11:53:15;10.10;99.90
48988;DHT22;34799;51.440;-2.534;2023-11-21T11:55:43;10.10;99.90
48988;DHT22;34799;51.440;-2.534;2023-11-21T11:58:10;10.10;99.90
48988;DHT22;34799;51.440;-2.534;2023-11-21T12:00:39;10.10;99.90
48988;DHT22;34799;51.440;-2.534;2023-11-21T12:03:09;10.50;99.90
48988;DHT22;34799;51.440;-2.534;2023-11-21T12:05:43;10.10;99.90
48988;DHT22;34799;51.440;-2.534;2023-11-21T12:08:40;10.20;99.90
48988;DHT22;34799;51.440;-2.534;2023-11-21T12:11:12;10.20;99.90
48988;DHT22;34799;51.440;-2.534;2023-11-21T12:13:41;10.20;99.90
48988;DHT22;34799;51.440;-2.534;2023-11-21T12:16:10;10.30;99.90
48988;DHT22;34799;51.440;-2.534;2023-11-21T12:18:38;10.30;99.90
48988;DHT22;34799;51.440;-2.534;2023-11-21T12:21:06;10.30;99.90
48988;DHT22;34799;51.440;-2.534;2023-11-21T12:23:36;10.40;99.90
48988;DHT22;34799;51.440;-2.534;2023-11-21T12:26:04;11.40;99.90
48988;DHT22;34799;51.440;-2.534;2023-11-21T12:28:32;10.40;99.90
48988;DHT22;34799;51.440;-2.534;2023-11-21T12:31:01;10.40;99.90
48988;DHT22;34799;51.440;-2.534;2023-11-21T12:33:30;10.40;99.90
48988;DHT22;34799;51.440;-2.534;2023-11-21T12:35:59;10.40;99.90
48988;DHT22;34799;51.440;-2.534;2023-11-21T12:38:34;10.40;99.90
48988;DHT22;34799;51.440;-2.534;2023-11-21T12:41:03;10.30;99.90
48988;DHT22;34799;51.440;-2.534;2023-11-21T12:43:31;10.30;99.90
48988;DHT22;34799;51.440;-2.534;2023-11-21T12:46:13;10.50;99.90
48988;DHT22;34799;51.440;-2.534;2023-11-21T12:48:44;10.60;99.90
48988;DHT22;34799;51.440;-2.534;2023-11-21T12:51:12;10.30;99.90
48988;DHT22;34799;51.440;-2.534;2023-11-21T12:53:41;10.20;99.90
48988;DHT22;34799;51.440;-2.534;2023-11-21T12:56:13;10.20;99.90
48988;DHT22;34799;51.440;-2.534;2023-11-21T12:58:45;11.30;99.90
48988;DHT22;34799;51.440;-2.534;2023-11-21T13:01:15;10.80;99.90
48988;DHT22;34799;51.440;-2.534;2023-11-21T13:03:49;10.30;99.90
48988;DHT22;34799;51.440;-2.534;2023-11-21T13:06:19;10.30;99.90
48988;DHT22;34799;51.440;-2.534;2023-11-21T13:08:48;10.40;99.90
48988;DHT22;34799;51.440;-2.534;2023-11-21T13:11:17;10.30;99.90
48988;DHT22;34799;51.440;-2.534;2023-11-21T13:13:45;10.50;99.90
48988;DHT22;34799;51.440;-2.534;2023-11-21T13:16:13;10.30;99.90
48988;DHT22;34799;51.440;-2.534;2023-11-21T13:18:42;10.30;99.90
48988;DHT22;34799;51.440;-2.534;2023-11-21T13:21:10;9.30;99.90
48988;DHT22;34799;51.440;-2.534;2023-11-21T13:23:42;10.30;99.90
48988;DHT22;34799;51.440;-2.534;2023-11-21T13:26:10;10.30;99.90
48988;DHT22;34799;51.440;-2.534;2023-11-21T13:28:37;10.60;99.90
48988;DHT22;34799;51.440;-2.534;2023-11-21T13:31:05;10.40;99.90
48988;DHT22;34799;51.440;-2.534;2023-11-21T13:33:50;10.30;99.90
48988;DHT22;34799;51.440;-2.534;2023-11-21T13:36:26;10.30;99.90
48988;DHT22;34799;51.440;-2.534;2023-11-21T13:38:58;10.60;99.90
48988;DHT22;34799;51.440;-2.534;2023-11-21T13:41:26;10.30;99.90
48988;DHT22;34799;51.440;-2.534;2023-11-21T13:43:57;10.30;99.90
48988;DHT22;34799;51.440;-2.534;2023-11-21T13:46:42;10.30;99.90
48988;DHT22;34799;51.440;-2.534;2023-11-21T13:49:13;10.30;99.90
48988;DHT22;34799;51.440;-2.534;2023-11-21T13:51:41;10.30;99.90
48988;DHT22;34799;51.440;-2.534;2023-11-21T13:54:11;10.30;99.90
48988;DHT22;34799;51.440;-2.534;2023-11-21T13:56:38;10.20;99.90
48988;DHT22;34799;51.440;-2.534;2023-11-21T13:59:07;10.20;99.90
48988;DHT22;34799;51.440;-2.534;2023-11-21T14:01:52;10.20;99.90
48988;DHT22;34799;51.440;-2.534;2023-11-21T14:04:21;10.20;99.90
48988;DHT22;34799;51.440;-2.534;2023-11-21T14:07:02;10.20;99.90
48988;DHT22;34799;51.440;-2.534;2023-11-21T14:09:48;10.20;99.90
48988;DHT22;34799;51.440;-2.534;2023-11-21T14:12:16;10.20;99.90
48988;DHT22;34799;51.440;-2.534;2023-11-21T14:14:44;10.20;99.90
48988;DHT22;34799;51.440;-2.534;2023-11-21T14:17:14;10.20;99.90
48988;DHT22;34799;51.440;-2.534;2023-11-21T14:19:42;10.20;99.90
48988;DHT22;34799;51.440;-2.534;2023-11-21T14:22:11;10.10;99.90
48988;DHT22;34799;51.440;-2.534;2023-11-21T14:24:38;10.10;99.90
48988;DHT22;34799;51.440;-2.534;2023-11-21T14:27:13;10.50;99.90
48988;DHT22;34799;51.440;-2.534;2023-11-21T14:29:42;10.20;99.90
48988;DHT22;34799;51.440;-2.534;2023-11-21T14:32:12;10.40;99.90
48988;DHT22;34799;51.440;-2.534;2023-11-21T14:34:40;10.30;99.90
48988;DHT22;34799;51.440;-2.534;2023-11-21T14:37:10;10.30;99.90
48988;DHT22;34799;51.440;-2.534;2023-11-21T14:39:40;10.20;99.90
48988;DHT22;34799;51.440;-2.534;2023-11-21T14:42:11;10.20;99.90
48988;DHT22;34799;51.440;-2.534;2023-11-21T14:44:38;10.20;99.90
48988;DHT22;34799;51.440;-2.534;2023-11-21T14:47:08;10.20;99.90
48988;DHT22;34799;51.440;-2.534;2023-11-21T14:49:42;10.20;99.90
48988;DHT22;34799;51.440;-2.534;2023-11-21T14:52:20;10.20;99.90
48988;DHT22;34799;51.440;-2.534;2023-11-21T14:55:05;10.30;99.90
48988;DHT22;34799;51.440;-2.534;2023-11-21T14:57:50;10.30;99.90
48988;DHT22;34799;51.440;-2.534;2023-11-21T15:00:18;10.30;99.90
48988;DHT22;34799;51.440;-2.534;2023-11-21T15:03:03;10.20;99.90
48988;DHT22;34799;51.440;-2.534;2023-11-21T15:05:31;10.30;99.90
48988;DHT22;34799;51.440;-2.534;2023-11-21T15:07:58;10.30;99.90
48988;DHT22;34799;51.440;-2.534;2023-11-21T15:10:38;10.80;99.90
48988;DHT22;34799;51.440;-2.534;2023-11-21T15:13:20;10.20;99.90
48988;DHT22;34799;51.440;-2.534;2023-11-21T15:15:49;10.70;99.90
48988;DHT22;34799;51.440;-2.534;2023-11-21T15:18:16;10.20;99.90
48988;DHT22;34799;51.440;-2.534;2023-11-21T15:20:43;10.10;99.90
48988;DHT22;34799;51.440;-2.534;2023-11-21T15:23:11;10.00;99.90
48988;DHT22;34799;51.440;-2.534;2023-11-21T15:25:40;10.00;99.90
48988;DHT22;34799;51.440;-2.534;2023-11-21T15:28:08;9.90;99.90
48988;DHT22;34799;51.440;-2.534;2023-11-21T15:30:35;9.90;99.90
48988;DHT22;34799;51.440;-2.534;2023-11-21T15:33:04;9.80;99.90
48988;DHT22;34799;51.440;-2.534;2023-11-21T15:35:33;10.20;99.90